Time;durP1;ratioP1;P1;durP2;ratioP2;P2;SDS_P1;SDS_P2;PMS_P1;PMS_P2;Temp;Humidity;BMP_temperature;BMP_pressure;BME280_temperature;BME280_humidity;BME280_pressure;Samples;Min_cycle;Max_cycle;Signal;HPM_P1;HPM_P2
2022/01/23 00:02:21;;;;;;;17.50;8.60;;;;;;;-4.47;85.29;95054.41;5081033;28;20205;-87
2022/01/23 00:04:49;;;;;;;17.83;8.47;;;;;;;-4.40;85.80;95069.97;5085414;28;20284;-85
2022/01/23 00:07:17;;;;;;;14.30;6.80;;;;;;;-4.42;86.03;95069.28;5084848;28;20196;-90
2022/01/23 00:09:47;;;;;;;16.17;7.80;;;;;;;-4.43;85.34;95076.06;5075632;28;20205;-78
2022/01/23 00:12:18;;;;;;;22.30;9.80;;;;;;;-4.32;85.26;95082.84;5078144;28;20204;-79
2022/01/23 00:17:34;;;;;;;15.77;8.13;;;;;;;-4.11;84.24;95076.94;5076999;28;20204;-79
2022/01/23 00:20:04;;;;;;;15.23;7.63;;;;;;;-4.04;84.21;95078.06;5087528;28;20209;-79
2022/01/23 00:22:38;;;;;;;15.50;7.43;;;;;;;-3.96;83.86;95085.09;5090049;28;20216;-78
2022/01/23 00:30:42;;;;;;;10.33;5.63;;;;;;;-3.88;83.81;95087.84;5082212;28;20870;-77
2022/01/23 00:33:11;;;;;;;9.00;5.47;;;;;;;-4.00;84.18;95088.78;5077576;28;20916;-77
2022/01/23 00:35:41;;;;;;;9.87;5.43;;;;;;;-3.92;84.07;95091.53;5089504;28;20201;-77
2022/01/23 00:38:11;;;;;;;9.00;5.37;;;;;;;-3.81;83.58;95085.63;5083132;28;20223;-77
2022/01/23 00:40:42;;;;;;;8.70;5.87;;;;;;;-3.80;83.70;95090.59;5077265;28;20239;-77
2022/01/23 00:43:17;;;;;;;7.93;4.97;;;;;;;-3.85;83.42;95076.63;5085842;28;20250;-77
2022/01/23 00:45:49;;;;;;;9.60;6.03;;;;;;;-3.78;83.45;95087.94;5081029;28;20193;-78
2022/01/23 00:48:23;;;;;;;13.50;6.00;;;;;;;-3.84;83.48;95099.38;5071209;28;20194;-77
2022/01/23 00:50:53;;;;;;;15.53;7.07;;;;;;;-4.09;84.83;95084.44;5081762;28;20892;-78
2022/01/23 00:53:22;;;;;;;18.33;8.30;;;;;;;-4.25;85.60;95097.50;5088275;28;20624;-79
2022/01/23 00:55:50;;;;;;;12.73;6.63;;;;;;;-4.38;87.30;95091.75;5079436;28;20193;-80
2022/01/23 00:58:19;;;;;;;10.33;6.30;;;;;;;-4.28;87.95;95089.31;5086154;28;20208;-78
2022/01/23 01:00:47;;;;;;;16.37;7.00;;;;;;;-4.17;87.73;95092.66;5080093;28;20260;-78
2022/01/23 01:03:15;;;;;;;13.10;6.40;;;;;;;-4.09;87.45;95089.50;5089688;28;20205;-78
2022/01/23 01:05:44;;;;;;;11.73;5.60;;;;;;;-4.03;86.55;95094.09;5083362;28;20652;-79
2022/01/23 01:08:13;;;;;;;12.63;7.10;;;;;;;-3.94;86.66;95088.31;5089399;28;20287;-79
2022/01/23 01:10:51;;;;;;;12.00;6.10;;;;;;;-4.01;87.03;95087.16;5089319;28;20231;-79
2022/01/23 01:13:22;;;;;;;11.03;5.33;;;;;;;-3.98;85.90;95084.41;5088695;28;20288;-79
2022/01/23 01:16:02;;;;;;;15.53;7.10;;;;;;;-4.10;86.99;95078.53;5087689;28;20231;-79
2022/01/23 01:32:44;;;;;;;14.40;6.53;;;;;;;-4.84;92.58;95086.00;5082761;28;20640;-78
2022/01/23 01:35:21;;;;;;;11.67;5.70;;;;;;;-4.86;93.98;95082.78;5080776;28;20702;-78
2022/01/23 01:37:50;;;;;;;9.90;5.77;;;;;;;-4.84;93.55;95093.59;5088443;28;20671;-77
2022/01/23 01:40:19;;;;;;;12.73;6.20;;;;;;;-4.69;93.62;95083.13;5089146;28;20626;-78
2022/01/23 01:42:47;;;;;;;12.00;6.10;;;;;;;-4.57;93.54;95085.66;5088381;28;20671;-78
2022/01/23 01:45:22;;;;;;;12.47;7.10;;;;;;;-4.53;92.01;95074.38;5083966;28;20194;-78
2022/01/23 01:47:51;;;;;;;14.90;6.80;;;;;;;-4.39;90.82;95089.34;5083561;28;20920;-77
2022/01/23 01:50:19;;;;;;;13.77;7.53;;;;;;;-4.35;91.30;95085.63;5089043;28;20284;-79
2022/01/23 01:52:47;;;;;;;14.43;6.50;;;;;;;-4.36;89.96;95084.03;5081634;28;20733;-78
2022/01/23 01:55:22;;;;;;;11.60;6.50;;;;;;;-4.36;91.81;95069.63;5088245;28;20224;-79
2022/01/23 01:57:55;;;;;;;13.57;6.70;;;;;;;-4.28;90.10;95082.53;5075755;28;20208;-79
2022/01/23 02:00:40;;;;;;;13.37;6.47;;;;;;;-4.36;90.22;95074.69;5088782;28;20264;-79
2022/01/23 02:08:48;;;;;;;17.87;8.30;;;;;;;-4.67;92.64;95088.88;5047782;28;20653;-79
2022/01/23 02:11:20;;;;;;;13.70;7.90;;;;;;;-4.60;92.62;95090.03;5078314;28;20204;-78
2022/01/23 02:13:53;;;;;;;14.60;7.50;;;;;;;-4.46;91.28;95090.72;5082274;28;20861;-80
2022/01/23 02:25:02;;;;;;;17.77;6.73;;;;;;;-4.31;88.89;95089.56;5091102;28;20258;-79
2022/01/23 02:52:45;;;;;;;14.87;8.30;;;;;;;-4.60;87.14;95120.47;5075794;28;20637;-80
2022/01/23 02:55:21;;;;;;;14.33;8.27;;;;;;;-4.58;87.27;95117.81;5089861;28;20203;-78
2022/01/23 02:57:55;;;;;;;18.70;8.67;;;;;;;-4.61;87.22;95116.31;5092202;28;20209;-79
2022/01/23 03:00:26;;;;;;;15.40;8.57;;;;;;;-4.70;87.40;95114.44;5091552;28;20301;-79
2022/01/23 03:03:02;;;;;;;18.13;9.00;;;;;;;-4.69;86.95;95111.00;5087641;28;20219;-79
2022/01/23 03:05:35;;;;;;;16.90;9.07;;;;;;;-4.71;86.91;95112.84;5076459;28;20213;-79
2022/01/23 03:08:17;;;;;;;16.90;8.70;;;;;;;-4.68;86.88;95120.22;5090022;28;20207;-80
2022/01/23 03:10:58;;;;;;;18.37;9.33;;;;;;;-4.76;87.04;95109.84;5093326;28;20641;-81
2022/01/23 03:13:44;;;;;;;17.60;8.53;;;;;;;-4.75;87.84;95126.66;5079646;28;20201;-79
2022/01/23 03:16:16;;;;;;;17.33;8.20;;;;;;;-4.92;87.39;95119.50;5085514;28;20734;-81
2022/01/23 03:24:27;;;;;;;14.03;7.57;;;;;;;-5.24;90.94;95121.03;5074208;28;20281;-79
2022/01/23 03:27:26;;;;;;;13.83;7.30;;;;;;;-5.10;90.01;95123.38;5081022;28;20211;-78
2022/01/23 03:29:56;;;;;;;14.40;8.20;;;;;;;-4.94;89.13;95125.63;5073985;28;20200;-80
2022/01/23 03:32:33;;;;;;;14.27;8.13;;;;;;;-4.85;87.98;95125.72;5084837;28;20255;-79
2022/01/23 03:35:01;;;;;;;15.07;7.80;;;;;;;-4.77;86.97;95133.59;5078929;28;20749;-80
2022/01/23 03:37:30;;;;;;;20.53;9.67;;;;;;;-4.64;86.46;95144.41;5080975;28;20209;-80
2022/01/23 03:39:57;;;;;;;18.33;9.43;;;;;;;-4.61;86.02;95131.50;5084266;28;20201;-78
2022/01/23 03:42:29;;;;;;;20.57;10.63;;;;;;;-4.68;86.29;95137.97;5072792;28;20217;-78
2022/01/23 03:45:16;;;;;;;18.50;9.30;;;;;;;-4.58;85.86;95133.00;5088293;28;20201;-78
2022/01/23 03:48:01;;;;;;;16.60;8.07;;;;;;;-4.53;84.90;95140.28;5079705;28;20713;-79
2022/01/23 03:50:29;;;;;;;18.43;9.23;;;;;;;-4.47;85.00;95129.69;5072616;28;20288;-80
2022/01/23 03:52:57;;;;;;;18.60;9.03;;;;;;;-4.50;84.36;95128.16;5085103;28;20207;-80
2022/01/23 03:55:26;;;;;;;17.40;8.47;;;;;;;-4.52;84.25;95135.09;5079719;28;20205;-80
2022/01/23 03:57:56;;;;;;;15.30;8.40;;;;;;;-4.54;84.82;95136.13;5085012;28;20201;-80
2022/01/23 04:00:23;;;;;;;16.50;9.17;;;;;;;-4.59;83.08;95128.88;5084922;28;20216;-77
2022/01/23 04:02:52;;;;;;;21.10;9.57;;;;;;;-4.56;84.41;95143.84;5089359;28;20204;-78
2022/01/23 04:05:20;;;;;;;21.37;10.07;;;;;;;-4.64;84.12;95146.13;5072225;28;20605;-79
2022/01/23 04:07:48;;;;;;;18.23;9.53;;;;;;;-4.72;84.15;95151.78;5082899;28;20201;-79
2022/01/23 04:10:18;;;;;;;22.10;9.90;;;;;;;-4.75;84.28;95152.00;5088725;28;20236;-78
2022/01/23 04:12:52;;;;;;;18.10;9.57;;;;;;;-4.66;85.10;95156.41;5086672;28;20209;-78
2022/01/23 04:15:31;;;;;;;20.93;9.53;;;;;;;-4.60;83.77;95155.94;5074844;28;20262;-79
2022/01/23 04:20:50;;;;;;;21.07;10.10;;;;;;;-4.55;84.07;95163.19;5077722;28;20603;-79
2022/01/23 04:32:07;;;;;;;16.63;8.60;;;;;;;-4.77;84.16;95164.00;5084726;28;20246;-80
2022/01/23 04:34:50;;;;;;;16.63;8.67;;;;;;;-4.98;85.18;95163.03;5070991;28;20237;-80
2022/01/23 04:45:35;;;;;;;18.27;8.03;;;;;;;-4.73;84.20;95175.50;5073524;28;20256;-80
2022/01/23 05:01:59;;;;;;;17.03;10.53;;;;;;;-4.54;81.77;95182.56;5070883;28;20269;-77
2022/01/23 05:04:32;;;;;;;20.70;11.13;;;;;;;-4.51;81.75;95179.81;5089148;28;20192;-77
2022/01/23 05:07:02;;;;;;;23.60;13.77;;;;;;;-4.47;81.08;95186.25;5088355;28;20213;-77
2022/01/23 05:09:31;;;;;;;20.80;12.37;;;;;;;-4.51;80.21;95189.94;5089653;28;20212;-77
2022/01/23 05:12:01;;;;;;;21.53;12.13;;;;;;;-4.52;81.37;95184.97;5089450;28;20209;-77
2022/01/23 05:14:32;;;;;;;21.03;11.00;;;;;;;-4.52;80.53;95185.78;5089227;28;20727;-77
2022/01/23 05:17:02;;;;;;;23.93;11.17;;;;;;;-4.72;80.71;95167.00;5082559;28;20269;-77
2022/01/23 05:19:32;;;;;;;18.83;9.70;;;;;;;-4.58;80.83;95181.16;5085801;28;20364;-78
2022/01/23 05:22:18;;;;;;;20.77;9.80;;;;;;;-4.58;80.33;95191.31;5080229;28;20667;-77
2022/01/23 05:24:51;;;;;;;18.33;8.30;;;;;;;-4.60;80.29;95190.63;5076185;28;20232;-77
2022/01/23 05:27:21;;;;;;;14.27;7.97;;;;;;;-4.63;80.82;95199.28;5076143;28;20200;-77
2022/01/23 05:29:51;;;;;;;16.87;8.77;;;;;;;-4.64;80.91;95195.09;5084394;28;20212;-78
2022/01/23 05:32:20;;;;;;;14.73;7.67;;;;;;;-4.71;81.26;95195.69;5089892;28;20254;-78
2022/01/23 05:34:51;;;;;;;19.43;9.50;;;;;;;-4.76;80.82;95193.47;5088804;28;20319;-80
2022/01/23 05:37:19;;;;;;;17.43;9.90;;;;;;;-4.69;80.99;95202.25;5086094;28;20251;-81
2022/01/23 05:39:48;;;;;;;19.50;9.93;;;;;;;-4.81;80.69;95193.00;5075720;28;20630;-79
2022/01/23 05:42:15;;;;;;;17.37;9.20;;;;;;;-5.00;81.29;95202.88;5085948;28;20645;-80
2022/01/23 05:44:45;;;;;;;9.97;5.97;;;;;;;-5.22;82.06;95188.38;5073926;28;20291;-80
2022/01/23 05:47:13;;;;;;;20.27;10.57;;;;;;;-5.16;83.04;95205.69;5062546;28;20698;-80
2022/01/23 05:49:42;;;;;;;23.93;12.23;;;;;;;-5.03;83.06;95215.75;5076151;28;20205;-77
2022/01/23 05:52:12;;;;;;;27.53;12.87;;;;;;;-4.90;81.95;95208.06;5090639;28;20273;-77
2022/01/23 05:54:39;;;;;;;30.40;14.70;;;;;;;-4.76;81.63;95218.81;5088969;28;20627;-76
2022/01/23 05:57:09;;;;;;;36.57;17.43;;;;;;;-4.69;80.41;95217.47;5088177;28;20635;-76
2022/01/23 05:59:37;;;;;;;31.43;15.47;;;;;;;-4.64;79.54;95215.38;5089266;28;20208;-79
2022/01/23 06:02:06;;;;;;;30.53;15.87;;;;;;;-4.63;80.10;95227.16;5084638;28;20262;-79
2022/01/23 06:04:34;;;;;;;35.50;16.67;;;;;;;-4.53;79.43;95213.81;5081154;28;20625;-79
2022/01/23 06:07:03;;;;;;;46.83;20.33;;;;;;;-4.63;78.86;95195.91;5086615;28;20300;-78
2022/01/23 06:09:33;;;;;;;47.87;21.80;;;;;;;-4.60;78.59;95219.31;5080621;28;20211;-78
2022/01/23 06:12:01;;;;;;;49.40;21.87;;;;;;;-4.76;79.38;95218.03;5060674;28;20202;-78
2022/01/23 06:14:30;;;;;;;46.57;22.57;;;;;;;-4.84;79.28;95218.56;5054598;28;20240;-78
2022/01/23 06:16:57;;;;;;;48.33;21.33;;;;;;;-4.90;79.25;95223.25;5071520;28;20189;-78
2022/01/23 06:19:25;;;;;;;45.00;20.60;;;;;;;-5.06;80.56;95222.75;5085467;28;20287;-72
2022/01/23 06:21:55;;;;;;;49.30;21.50;;;;;;;-5.09;81.06;95228.03;5087450;28;20221;-73
2022/01/23 06:24:25;;;;;;;54.37;22.97;;;;;;;-4.98;80.07;95228.06;5088113;28;20287;-72
2022/01/23 06:26:58;;;;;;;33.37;17.90;;;;;;;-4.99;80.68;95226.47;5087231;28;20200;-72
2022/01/23 06:29:30;;;;;;;44.77;20.23;;;;;;;-4.93;80.86;95226.00;5087464;28;20199;-72
2022/01/23 06:32:00;;;;;;;39.50;18.70;;;;;;;-4.90;79.87;95236.75;5088286;28;20193;-72
2022/01/23 06:34:29;;;;;;;36.70;16.83;;;;;;;-4.91;80.32;95234.34;5087150;28;20691;-72
2022/01/23 06:36:57;;;;;;;45.23;20.40;;;;;;;-4.94;80.77;95227.75;5086810;28;20684;-72
2022/01/23 06:39:26;;;;;;;45.13;19.60;;;;;;;-4.92;81.29;95236.06;5079928;28;20299;-71
2022/01/23 06:41:56;;;;;;;34.97;15.40;;;;;;;-4.82;80.39;95237.00;5087510;28;20217;-72
2022/01/23 06:44:24;;;;;;;50.07;20.17;;;;;;;-4.78;80.70;95229.97;5088306;28;20205;-71
2022/01/23 06:46:51;;;;;;;82.67;27.47;;;;;;;-4.73;80.52;95230.44;5086015;28;20257;-73
2022/01/23 06:49:19;;;;;;;42.47;18.67;;;;;;;-4.67;79.86;95230.00;5087971;28;20213;-73
2022/01/23 06:51:49;;;;;;;44.60;18.57;;;;;;;-4.64;79.45;95230.59;5088847;28;20204;-74
2022/01/23 06:54:17;;;;;;;47.30;20.10;;;;;;;-4.77;79.18;95212.16;5088733;28;20204;-73
2022/01/23 06:56:46;;;;;;;47.33;21.37;;;;;;;-4.81;80.91;95227.66;5086782;28;20197;-72
2022/01/23 06:59:16;;;;;;;56.27;21.77;;;;;;;-4.72;80.24;95222.75;5078096;28;20220;-72
2022/01/23 07:01:45;;;;;;;41.60;19.10;;;;;;;-4.70;80.00;95218.38;5083808;28;20260;-73
2022/01/23 07:04:14;;;;;;;45.70;18.20;;;;;;;-4.72;80.39;95224.47;5090916;28;20205;-72
2022/01/23 07:06:43;;;;;;;43.73;19.77;;;;;;;-4.85;81.20;95221.22;5091734;28;20232;-72
2022/01/23 07:09:13;;;;;;;48.60;22.17;;;;;;;-4.79;81.68;95228.38;5092213;28;20236;-78
2022/01/23 07:11:40;;;;;;;37.87;16.30;;;;;;;-4.73;81.85;95210.97;5097437;28;20581;-81
2022/01/23 07:14:09;;;;;;;43.20;19.23;;;;;;;-4.59;81.01;95227.75;5092462;28;20283;-71
2022/01/23 07:16:39;;;;;;;46.60;18.70;;;;;;;-4.51;81.71;95224.63;5083186;28;20623;-71
2022/01/23 07:19:07;;;;;;;34.23;14.10;;;;;;;-4.49;81.29;95218.53;5090054;28;20209;-73
2022/01/23 07:21:35;;;;;;;30.57;13.77;;;;;;;-4.53;82.12;95226.47;5090811;28;20297;-72
2022/01/23 07:24:03;;;;;;;27.30;12.67;;;;;;;-4.48;82.02;95220.16;5090849;28;20676;-72
2022/01/23 07:26:31;;;;;;;25.60;12.23;;;;;;;-4.53;81.98;95224.72;5090417;28;20320;-73
2022/01/23 07:29:01;;;;;;;23.77;11.60;;;;;;;-4.65;83.18;95226.44;5086871;28;20198;-71
2022/01/23 07:31:44;;;;;;;27.50;12.57;;;;;;;-4.60;83.40;95221.84;5083446;28;20208;-73
2022/01/23 07:34:14;;;;;;;22.63;11.23;;;;;;;-4.69;84.17;95220.00;5090578;28;20251;-73
2022/01/23 07:36:42;;;;;;;19.93;11.27;;;;;;;-4.74;85.03;95227.13;5083785;28;20557;-71
2022/01/23 07:39:10;;;;;;;21.67;10.87;;;;;;;-4.76;84.59;95223.09;5089518;28;20220;-73
2022/01/23 07:41:38;;;;;;;19.00;9.10;;;;;;;-4.71;84.25;95221.03;5091372;28;20293;-75
2022/01/23 07:44:08;;;;;;;18.37;9.27;;;;;;;-4.77;84.22;95219.75;5083557;28;20841;-73
2022/01/23 07:46:38;;;;;;;23.27;10.97;;;;;;;-4.61;84.00;95224.50;5088380;28;20207;-72
2022/01/23 07:49:06;;;;;;;21.83;11.10;;;;;;;-4.64;84.21;95228.06;5082462;28;20204;-73
2022/01/23 07:51:35;;;;;;;26.97;12.57;;;;;;;-4.53;84.15;95221.41;5089157;28;20201;-72
2022/01/23 07:54:04;;;;;;;26.67;12.70;;;;;;;-4.52;83.90;95236.50;5089406;28;20211;-73
2022/01/23 07:56:32;;;;;;;25.03;12.67;;;;;;;-4.41;83.62;95236.50;5088467;28;20200;-72
2022/01/23 07:59:00;;;;;;;27.70;13.57;;;;;;;-4.22;83.47;95234.25;5088366;28;20250;-74
2022/01/23 08:01:30;;;;;;;23.10;11.10;;;;;;;-4.23;82.34;95231.81;5088004;28;20300;-72
2022/01/23 08:03:58;;;;;;;20.27;11.33;;;;;;;-4.20;82.08;95239.19;5090028;28;20228;-75
2022/01/23 08:06:32;;;;;;;24.13;11.20;;;;;;;-4.11;81.50;95246.94;5089135;28;20584;-75
2022/01/23 08:09:02;;;;;;;21.57;10.33;;;;;;;-3.97;80.06;95242.53;5088920;28;20216;-75
2022/01/23 08:11:30;;;;;;;29.10;13.73;;;;;;;-3.99;80.59;95229.16;5089641;28;20204;-75
2022/01/23 08:13:58;;;;;;;25.70;12.13;;;;;;;-3.78;80.86;95245.31;5083433;28;20215;-72
2022/01/23 08:16:26;;;;;;;25.93;11.70;;;;;;;-3.73;79.75;95251.66;5085175;28;20296;-73
2022/01/23 08:18:53;;;;;;;21.33;11.20;;;;;;;-3.67;77.53;95250.38;5088924;28;20209;-72
2022/01/23 08:21:21;;;;;;;23.47;11.97;;;;;;;-3.81;78.21;95253.16;5082141;28;20236;-73
2022/01/23 08:23:52;;;;;;;26.60;11.63;;;;;;;-3.83;77.45;95249.91;5089594;28;20220;-73
2022/01/23 08:26:23;;;;;;;27.77;13.57;;;;;;;-3.86;77.76;95247.59;5090014;28;20196;-72
2022/01/23 08:28:51;;;;;;;24.13;12.10;;;;;;;-3.87;77.92;95259.50;5085755;28;20546;-74
2022/01/23 08:31:18;;;;;;;19.50;9.63;;;;;;;-3.87;77.92;95241.75;5088471;28;20290;-73
2022/01/23 08:33:46;;;;;;;14.33;8.03;;;;;;;-3.86;77.39;95242.53;5089346;28;20234;-73
2022/01/23 08:36:14;;;;;;;14.37;7.90;;;;;;;-3.86;76.04;95253.50;5089061;28;20214;-72
2022/01/23 08:38:43;;;;;;;14.83;8.40;;;;;;;-3.82;76.78;95249.81;5089305;28;20262;-72
2022/01/23 08:44:00;;;;;;;19.77;9.87;;;;;;;-3.73;76.29;95254.19;5088356;28;20223;-72
2022/01/23 08:46:28;;;;;;;17.43;8.83;;;;;;;-3.74;76.39;95249.22;5087766;28;20748;-76
2022/01/23 08:48:58;;;;;;;17.93;9.40;;;;;;;-3.69;76.14;95240.31;5088136;28;20592;-71
2022/01/23 08:51:26;;;;;;;22.97;10.60;;;;;;;-3.67;76.23;95246.13;5089019;28;20200;-73
2022/01/23 08:53:54;;;;;;;17.07;8.90;;;;;;;-3.62;75.76;95245.75;5088486;28;20204;-73
2022/01/23 08:56:22;;;;;;;17.50;9.50;;;;;;;-3.59;75.46;95250.59;5088361;28;20216;-73
2022/01/23 08:58:51;;;;;;;16.97;8.33;;;;;;;-3.51;75.18;95254.16;5088126;28;20261;-72
2022/01/23 09:01:21;;;;;;;20.33;10.33;;;;;;;-3.42;75.77;95254.38;5088292;28;20212;-73
2022/01/23 09:03:49;;;;;;;19.20;9.80;;;;;;;-3.31;75.49;95244.19;5089352;28;20679;-72
2022/01/23 09:06:17;;;;;;;22.50;10.93;;;;;;;-3.26;74.85;95252.28;5088800;28;20197;-73
2022/01/23 09:08:46;;;;;;;17.03;8.37;;;;;;;-3.15;73.87;95250.50;5088284;28;20229;-72
2022/01/23 09:11:25;;;;;;;11.20;6.70;;;;;;;-3.25;73.18;95267.38;5088116;28;20835;-73
2022/01/23 09:14:06;;;;;;;14.70;7.60;;;;;;;-3.41;73.54;95249.19;5089334;28;20204;-72
2022/01/23 09:16:38;;;;;;;20.17;9.43;;;;;;;-3.43;74.52;95253.56;5077228;28;20241;-74
2022/01/23 09:19:07;;;;;;;21.77;9.83;;;;;;;-3.35;75.37;95250.44;5087714;28;20195;-73
2022/01/23 09:21:35;;;;;;;25.37;11.07;;;;;;;-3.25;74.39;95259.75;5087502;28;20231;-73
2022/01/23 09:24:04;;;;;;;25.87;10.90;;;;;;;-3.20;74.57;95237.31;5088429;28;20232;-73
2022/01/23 09:26:33;;;;;;;24.17;9.43;;;;;;;-3.14;74.01;95247.00;5088339;28;20204;-73
2022/01/23 09:29:11;;;;;;;18.97;9.33;;;;;;;-3.14;74.61;95249.56;5085621;28;20227;-81
2022/01/23 09:31:48;;;;;;;14.07;8.60;;;;;;;-3.23;74.15;95216.47;5089351;28;20212;-76
2022/01/23 09:34:17;;;;;;;15.00;7.33;;;;;;;-3.25;73.68;95234.34;5085167;28;20726;-81
2022/01/23 09:36:46;;;;;;;19.23;8.83;;;;;;;-3.25;73.75;95238.63;5089408;28;20200;-81
2022/01/23 09:39:15;;;;;;;19.73;10.13;;;;;;;-3.14;74.36;95230.97;5075931;28;20208;-80
2022/01/23 09:41:47;;;;;;;23.50;12.27;;;;;;;-3.21;73.66;95227.31;5090322;28;20204;-78
2022/01/23 09:44:18;;;;;;;13.43;7.80;;;;;;;-3.26;72.94;95234.50;5090271;28;20207;-77
2022/01/23 09:46:49;;;;;;;26.80;9.60;;;;;;;-3.15;73.74;95234.44;5082172;28;20208;-80
2022/01/23 09:49:17;;;;;;;16.07;7.77;;;;;;;-3.17;72.76;95228.66;5076205;28;20606;-80
2022/01/23 09:51:46;;;;;;;16.80;8.27;;;;;;;-3.03;72.12;95228.41;5063700;28;20297;-80
2022/01/23 09:54:18;;;;;;;20.07;8.77;;;;;;;-3.09;72.17;95223.81;5077036;28;20232;-83
2022/01/23 09:56:45;;;;;;;19.10;7.07;;;;;;;-3.28;71.81;95211.72;5082969;28;20220;-83
2022/01/23 09:59:14;;;;;;;11.13;7.00;;;;;;;-3.16;71.82;95227.75;5076816;28;20699;-83
2022/01/23 10:01:45;;;;;;;16.30;7.77;;;;;;;-3.23;72.04;95222.31;5077988;28;20688;-84
2022/01/23 10:04:15;;;;;;;16.80;8.17;;;;;;;-3.14;71.79;95216.53;5090592;28;20212;-84
2022/01/23 10:06:42;;;;;;;21.03;10.47;;;;;;;-3.22;73.08;95212.97;5090042;28;20208;-83
2022/01/23 10:09:10;;;;;;;16.93;8.70;;;;;;;-3.13;72.49;95220.69;5087813;28;20208;-83
2022/01/23 10:11:42;;;;;;;20.13;8.70;;;;;;;-3.18;71.69;95205.00;5087950;28;20209;-83
2022/01/23 10:14:10;;;;;;;15.13;6.27;;;;;;;-3.12;70.77;95196.09;5076078;28;20236;-82
2022/01/23 10:16:38;;;;;;;19.43;8.33;;;;;;;-3.09;72.07;95198.38;5074991;28;20197;-84
2022/01/23 10:19:07;;;;;;;19.67;8.63;;;;;;;-3.11;72.08;95182.44;5078328;28;20224;-81
2022/01/23 10:21:39;;;;;;;22.83;9.67;;;;;;;-3.05;71.91;95189.56;5086731;28;20284;-80
2022/01/23 10:24:10;;;;;;;12.97;7.43;;;;;;;-3.03;70.64;95178.34;5088859;28;20308;-80
2022/01/23 10:26:47;;;;;;;20.57;8.40;;;;;;;-2.97;71.50;95189.75;5081763;28;20209;-80
2022/01/23 10:29:22;;;;;;;15.83;8.57;;;;;;;-2.97;71.89;95167.69;5086944;28;20254;-82
2022/01/23 10:32:07;;;;;;;20.00;9.20;;;;;;;-3.04;71.16;95163.25;5085875;28;20550;-85
2022/01/23 10:34:50;;;;;;;19.17;8.73;;;;;;;-2.98;72.50;95176.28;5067880;28;20233;-83
2022/01/23 10:37:29;;;;;;;17.60;6.77;;;;;;;-3.01;71.01;95173.97;5085877;28;20217;-82
2022/01/23 10:39:59;;;;;;;17.13;8.10;;;;;;;-2.97;71.76;95167.69;5070940;28;20201;-83
2022/01/23 10:48:00;;;;;;;18.27;9.07;;;;;;;-2.87;70.82;95160.94;5059648;28;20205;-81
2022/01/23 10:50:29;;;;;;;15.57;8.17;;;;;;;-2.80;70.61;95158.72;5069992;28;20346;-81
2022/01/23 10:53:00;;;;;;;17.17;9.83;;;;;;;-2.80;70.47;95153.66;5076418;28;20221;-82
2022/01/23 10:55:30;;;;;;;18.07;8.73;;;;;;;-2.73;69.86;95152.19;5088960;28;20233;-82
2022/01/23 10:58:01;;;;;;;16.33;8.43;;;;;;;-2.67;69.26;95161.88;5090597;28;20201;-82
2022/01/23 11:00:32;;;;;;;13.80;7.20;;;;;;;-2.70;68.80;95156.22;5079051;28;20216;-82
2022/01/23 11:03:03;;;;;;;18.50;8.07;;;;;;;-2.64;69.35;95150.63;5092345;28;20216;-81
2022/01/23 11:05:35;;;;;;;16.53;8.13;;;;;;;-2.51;68.85;95134.22;5085622;28;20849;-79
2022/01/23 11:08:21;;;;;;;17.17;8.00;;;;;;;-2.47;67.97;95140.69;5092389;28;20208;-82
2022/01/23 11:10:56;;;;;;;14.03;6.73;;;;;;;-2.46;67.22;95144.03;5083993;28;20197;-80
2022/01/23 11:19:17;;;;;;;15.70;7.87;;;;;;;-1.19;63.97;95145.81;5089503;28;20673;-76
2022/01/23 11:21:47;;;;;;;27.23;11.33;;;;;;;-1.46;63.44;95138.81;5085284;28;20226;-89
2022/01/23 11:24:15;;;;;;;18.10;7.63;;;;;;;-1.79;64.48;95149.38;5074408;28;20229;-82
2022/01/23 11:26:43;;;;;;;14.53;6.20;;;;;;;-2.05;65.12;95146.47;5078949;28;20257;-81
2022/01/23 11:29:12;;;;;;;16.30;7.67;;;;;;;-2.19;66.26;95139.19;5082572;28;20204;-81
2022/01/23 11:31:42;;;;;;;13.00;7.83;;;;;;;-2.09;66.88;95132.41;5087847;28;20201;-83
2022/01/23 11:34:11;;;;;;;16.00;7.43;;;;;;;-1.94;66.69;95145.56;5078929;28;20946;-83
2022/01/23 11:36:40;;;;;;;11.47;6.13;;;;;;;-1.94;64.71;95130.31;5083112;28;20212;-81
2022/01/23 11:39:13;;;;;;;11.37;5.93;;;;;;;-1.91;65.65;95123.22;5085191;28;20274;-82
2022/01/23 11:50:44;;;;;;;12.17;6.80;;;;;;;-1.71;65.43;95111.31;5084180;28;20227;-81
2022/01/23 11:53:47;;;;;;;13.97;6.93;;;;;;;-1.80;65.76;95117.19;5071105;28;20205;-80
2022/01/23 11:56:46;;;;;;;16.53;7.87;;;;;;;-2.10;66.91;95124.88;5089392;28;20211;-80
2022/01/23 11:59:18;;;;;;;15.50;7.50;;;;;;;-2.21;67.15;95110.53;5080782;28;20208;-80
2022/01/23 12:01:48;;;;;;;15.57;8.10;;;;;;;-2.30;67.82;95124.81;5085613;28;20196;-81
2022/01/23 12:04:20;;;;;;;14.43;7.50;;;;;;;-2.33;67.54;95114.09;5072921;28;20218;-86
2022/01/23 12:07:22;;;;;;;12.90;6.97;;;;;;;-2.52;67.86;95107.22;5073108;28;20197;-82
2022/01/23 12:10:20;;;;;;;13.60;7.47;;;;;;;-2.69;68.76;95089.19;5066847;28;20226;-82
2022/01/23 12:12:53;;;;;;;18.83;8.37;;;;;;;-2.71;69.44;95098.69;5060602;28;20202;-84
2022/01/23 12:18:14;;;;;;;18.20;8.23;;;;;;;-2.68;68.67;95093.31;5073910;28;20255;-89
2022/01/23 12:20:43;;;;;;;14.87;8.03;;;;;;;-2.66;69.17;95110.09;5087466;28;20199;-82
2022/01/23 12:23:14;;;;;;;15.53;8.00;;;;;;;-2.86;68.56;95099.00;5091068;28;20225;-83
2022/01/23 12:25:44;;;;;;;14.30;7.37;;;;;;;-2.93;70.24;95097.91;5081786;28;20193;-82
2022/01/23 12:28:22;;;;;;;16.70;8.53;;;;;;;-2.91;71.80;95097.75;5084750;28;20202;-82
2022/01/23 12:30:52;;;;;;;18.63;8.73;;;;;;;-2.96;71.92;95110.03;5082407;28;20200;-83
2022/01/23 12:33:26;;;;;;;16.47;7.60;;;;;;;-2.98;72.21;95111.91;5078985;28;20240;-84
2022/01/23 12:35:58;;;;;;;15.33;7.60;;;;;;;-3.00;71.95;95106.94;5064328;28;20690;-82
2022/01/23 12:38:32;;;;;;;14.47;7.17;;;;;;;-3.02;72.01;95102.91;5078020;28;20584;-82
2022/01/23 12:41:19;;;;;;;16.03;7.57;;;;;;;-3.19;73.30;95091.59;5079752;28;20560;-84
2022/01/23 12:43:48;;;;;;;16.57;8.87;;;;;;;-3.07;73.55;95105.03;5082689;28;20223;-83
2022/01/23 12:46:35;;;;;;;14.57;7.33;;;;;;;-3.12;72.84;95097.78;5078991;28;20198;-82
2022/01/23 12:49:24;;;;;;;12.07;7.17;;;;;;;-3.13;73.20;95090.28;5092703;28;20201;-83
2022/01/23 12:51:56;;;;;;;17.30;9.07;;;;;;;-3.11;74.01;95104.47;5090022;28;20288;-82
2022/01/23 12:54:27;;;;;;;17.03;7.40;;;;;;;-3.13;73.84;95101.25;5072885;28;20593;-83
2022/01/23 12:56:56;;;;;;;22.53;11.53;;;;;;;-3.16;74.52;95113.41;5085133;28;20194;-84
2022/01/23 12:59:33;;;;;;;23.53;11.23;;;;;;;-3.09;74.15;95107.69;5069000;28;20237;-93
2022/01/23 13:02:07;;;;;;;18.77;9.20;;;;;;;-2.95;73.92;95104.84;5056316;28;20196;-86
2022/01/23 13:04:39;;;;;;;16.93;8.07;;;;;;;-2.96;73.33;95115.94;5077368;28;20338;-83
2022/01/23 13:07:18;;;;;;;16.90;8.93;;;;;;;-3.00;74.68;95118.88;5088042;28;20205;-84
2022/01/23 13:09:58;;;;;;;16.00;9.40;;;;;;;-3.01;73.75;95110.44;5065518;28;20212;-84
2022/01/23 13:12:48;;;;;;;19.67;9.20;;;;;;;-3.04;74.77;95109.88;5067105;28;20584;-82
2022/01/23 13:18:17;;;;;;;16.33;8.47;;;;;;;-3.08;74.84;95108.50;5068383;28;20200;-83
2022/01/23 13:26:46;;;;;;;14.23;7.90;;;;;;;-3.12;74.65;95109.69;5075202;28;20314;-88
2022/01/23 13:32:13;;;;;;;16.33;7.57;;;;;;;-3.24;73.91;95114.03;5048236;28;20189;-79
2022/01/23 13:34:48;;;;;;;18.53;9.27;;;;;;;-3.19;74.61;95119.53;5071167;28;20703;-86
2022/01/23 13:37:17;;;;;;;19.67;8.80;;;;;;;-3.18;74.70;95122.88;5071810;28;20205;-82
2022/01/23 13:39:50;;;;;;;16.67;8.87;;;;;;;-3.17;74.59;95115.13;5076804;28;20205;-79
2022/01/23 13:42:33;;;;;;;18.13;9.47;;;;;;;-3.14;74.20;95112.34;5083332;28;20189;-80
2022/01/23 13:48:21;;;;;;;15.17;7.70;;;;;;;-3.15;74.08;95118.38;5079816;28;20585;-83
2022/01/23 13:53:51;;;;;;;17.13;8.80;;;;;;;-3.15;74.38;95095.50;5077834;28;20304;-76
2022/01/23 13:59:13;;;;;;;18.37;9.33;;;;;;;-3.14;73.89;95114.06;5086935;28;20808;-79
2022/01/23 14:01:52;;;;;;;15.90;8.70;;;;;;;-3.07;74.90;95116.00;5084646;28;20721;-77
2022/01/23 14:04:25;;;;;;;18.13;8.90;;;;;;;-3.14;74.02;95112.34;5087998;28;20289;-81
2022/01/23 14:06:54;;;;;;;18.73;8.93;;;;;;;-3.12;73.95;95113.03;5090301;28;20613;-78
2022/01/23 14:09:24;;;;;;;19.37;10.53;;;;;;;-3.28;74.30;95107.56;5091322;28;20212;-74
2022/01/23 14:11:52;;;;;;;23.83;10.77;;;;;;;-3.27;75.12;95100.75;5085280;28;20204;-74